Time;durP1;ratioP1;P1;durP2;ratioP2;P2;SDS_P1;SDS_P2;PMS_P1;PMS_P2;Temp;Humidity;BMP_temperature;BMP_pressure;BME280_temperature;BME280_humidity;BME280_pressure;Samples;Min_cycle;Max_cycle;Signal;HPM_P1;HPM_P2
2023/12/18 00:00:21;;;;;;;7.30;4.00;;;2.20;99.90;;;;;;5036373;28;20025;-64
2023/12/18 00:02:47;;;;;;;9.60;4.10;;;2.20;99.90;;;;;;5036616;28;20025;-63
2023/12/18 00:05:12;;;;;;;6.85;3.25;;;2.20;99.90;;;;;;5036955;28;20025;-63
2023/12/18 00:07:38;;;;;;;11.48;4.03;;;2.20;99.90;;;;;;5018481;28;20029;-63
2023/12/18 00:10:04;;;;;;;6.57;3.47;;;2.10;99.90;;;;;;5035904;28;20457;-63
2023/12/18 00:12:30;;;;;;;9.52;3.90;;;2.10;99.90;;;;;;5036165;28;20037;-63
2023/12/18 00:14:55;;;;;;;7.80;3.40;;;2.10;99.90;;;;;;5036555;28;20044;-63
2023/12/18 00:17:21;;;;;;;8.50;3.85;;;2.10;99.90;;;;;;5035803;28;20033;-63
2023/12/18 00:19:46;;;;;;;7.85;3.63;;;2.00;99.90;;;;;;5018307;28;20021;-63
2023/12/18 00:22:12;;;;;;;7.45;4.03;;;2.00;99.90;;;;;;5035978;28;20526;-63
2023/12/18 00:24:37;;;;;;;10.27;3.88;;;1.90;99.90;;;;;;5018188;28;20025;-63
2023/12/18 00:27:03;;;;;;;6.88;3.45;;;1.90;99.90;;;;;;5018209;28;20093;-63
2023/12/18 00:29:29;;;;;;;6.10;3.42;;;1.80;99.90;;;;;;5018237;28;20022;-63
2023/12/18 00:31:54;;;;;;;8.05;3.60;;;1.80;99.90;;;;;;5035779;28;20131;-63
2023/12/18 00:34:20;;;;;;;4.43;3.00;;;1.80;99.90;;;;;;5035782;28;20037;-63
2023/12/18 00:36:46;;;;;;;11.10;3.22;;;1.80;99.90;;;;;;5036085;28;20037;-64
2023/12/18 00:39:15;;;;;;;6.82;3.45;;;1.70;99.90;;;;;;5035796;28;20053;-63
2023/12/18 00:41:41;;;;;;;5.57;2.85;;;1.70;99.90;;;;;;5017859;28;20434;-63
2023/12/18 00:44:07;;;;;;;5.63;3.47;;;1.60;99.90;;;;;;5017851;28;20481;-63
2023/12/18 00:46:32;;;;;;;6.07;2.80;;;1.70;99.90;;;;;;5035540;28;20033;-63
2023/12/18 00:48:58;;;;;;;7.55;3.78;;;1.70;99.90;;;;;;5035291;28;20029;-63
2023/12/18 00:51:24;;;;;;;7.40;3.72;;;1.70;99.90;;;;;;5035282;28;20478;-63
2023/12/18 00:53:49;;;;;;;7.53;3.95;;;1.60;99.90;;;;;;5035527;28;20057;-65
2023/12/18 00:56:15;;;;;;;7.25;3.10;;;1.60;99.90;;;;;;5035339;28;20112;-63
2023/12/18 00:58:40;;;;;;;6.18;2.72;;;1.60;99.90;;;;;;5035085;28;20025;-63
2023/12/18 01:01:06;;;;;;;10.48;2.95;;;1.50;99.90;;;;;;5034988;28;20033;-63
2023/12/18 01:03:31;;;;;;;5.70;2.72;;;1.60;99.90;;;;;;5017670;28;20121;-64
2023/12/18 01:05:57;;;;;;;6.20;2.83;;;1.50;99.90;;;;;;5020401;28;20026;-64
2023/12/18 01:08:23;;;;;;;8.55;3.30;;;1.50;99.90;;;;;;5020390;28;20029;-65
2023/12/18 01:10:48;;;;;;;8.63;3.88;;;1.50;99.90;;;;;;5037309;28;20025;-63
2023/12/18 01:13:14;;;;;;;8.73;2.95;;;1.50;99.90;;;;;;5037911;28;20029;-64
2023/12/18 01:15:40;;;;;;;5.90;2.58;;;1.50;99.90;;;;;;5037247;28;20043;-63
2023/12/18 01:18:05;;;;;;;6.03;2.42;;;1.40;99.90;;;;;;5034877;28;20378;-63
2023/12/18 01:20:31;;;;;;;6.07;2.92;;;1.50;99.90;;;;;;5035316;28;20025;-63
2023/12/18 01:22:56;;;;;;;6.55;2.85;;;1.50;99.90;;;;;;5034829;28;20104;-63
2023/12/18 01:25:22;;;;;;;4.88;2.58;;;1.50;99.90;;;;;;5034531;28;20033;-63
2023/12/18 01:27:48;;;;;;;5.95;3.03;;;1.50;99.90;;;;;;5017237;28;20038;-63
2023/12/18 01:30:13;;;;;;;6.00;3.17;;;1.50;99.90;;;;;;5034862;28;20064;-63
2023/12/18 01:32:39;;;;;;;4.82;2.50;;;1.50;99.90;;;;;;5034620;28;20116;-63
2023/12/18 01:35:05;;;;;;;3.58;1.95;;;1.60;99.90;;;;;;5034576;28;20104;-64
2023/12/18 01:37:31;;;;;;;2.90;2.00;;;1.70;99.90;;;;;;5034402;28;20021;-64
2023/12/18 01:39:57;;;;;;;4.38;1.88;;;1.90;99.90;;;;;;5034671;28;20374;-63
2023/12/18 01:42:23;;;;;;;4.82;2.20;;;2.10;99.90;;;;;;5016698;28;20029;-63
2023/12/18 01:44:48;;;;;;;5.50;2.80;;;2.10;99.90;;;;;;5034629;28;20044;-63
2023/12/18 01:47:16;;;;;;;2.88;1.75;;;2.20;99.90;;;;;;5034386;28;20025;-63
2023/12/18 01:49:42;;;;;;;7.28;2.58;;;2.20;99.90;;;;;;5016593;28;20490;-63
2023/12/18 01:52:08;;;;;;;5.07;1.90;;;2.20;99.90;;;;;;5034277;28;20475;-63
2023/12/18 01:54:34;;;;;;;3.25;1.75;;;2.30;99.90;;;;;;5034263;28;20030;-63
2023/12/18 01:57:01;;;;;;;2.55;1.83;;;2.40;99.90;;;;;;5034307;28;20028;-63
2023/12/18 01:59:26;;;;;;;2.70;1.60;;;2.50;99.90;;;;;;5034391;28;20026;-63
2023/12/18 02:01:52;;;;;;;2.40;1.60;;;2.60;99.90;;;;;;5034162;28;20037;-63
2023/12/18 02:04:19;;;;;;;3.05;1.73;;;2.60;99.90;;;;;;5016843;28;20029;-63
2023/12/18 02:06:46;;;;;;;3.72;1.70;;;2.70;99.90;;;;;;5034432;28;20037;-63
2023/12/18 02:09:12;;;;;;;4.63;1.60;;;2.70;99.90;;;;;;5015684;28;20028;-63
2023/12/18 02:11:38;;;;;;;7.10;2.15;;;2.80;99.90;;;;;;5033901;28;20025;-63
2023/12/18 02:14:05;;;;;;;3.03;1.50;;;2.80;99.90;;;;;;5033987;28;20038;-63
2023/12/18 02:16:31;;;;;;;4.25;1.90;;;2.90;99.90;;;;;;5016257;28;20379;-63
2023/12/18 02:18:56;;;;;;;2.42;1.42;;;2.90;99.90;;;;;;5033897;28;20021;-63
2023/12/18 02:21:22;;;;;;;3.33;1.52;;;2.90;99.90;;;;;;5033585;28;20480;-63
2023/12/18 02:23:49;;;;;;;3.78;1.58;;;3.00;99.90;;;;;;5033879;28;20139;-63
2023/12/18 02:26:15;;;;;;;2.10;1.33;;;3.20;99.90;;;;;;5034066;28;20033;-63
2023/12/18 02:28:43;;;;;;;2.85;1.65;;;3.20;99.90;;;;;;5034138;28;20025;-63
2023/12/18 02:31:12;;;;;;;1.48;1.15;;;3.20;99.90;;;;;;5016118;28;20065;-64
2023/12/18 02:33:37;;;;;;;2.50;1.55;;;3.30;99.90;;;;;;5016170;28;20110;-63
2023/12/18 02:36:03;;;;;;;4.65;1.60;;;3.20;99.90;;;;;;5033958;28;20030;-63
2023/12/18 02:38:29;;;;;;;1.73;1.10;;;3.20;99.90;;;;;;5016501;28;20389;-63
2023/12/18 02:40:54;;;;;;;2.25;1.25;;;3.10;99.90;;;;;;5016744;28;20033;-63
2023/12/18 02:43:20;;;;;;;2.50;1.48;;;3.10;99.90;;;;;;5016695;28;20516;-63
2023/12/18 02:45:46;;;;;;;1.15;0.88;;;3.00;99.90;;;;;;5034245;28;20025;-64
2023/12/18 02:48:11;;;;;;;2.03;1.17;;;3.00;99.90;;;;;;5033811;28;20028;-63
2023/12/18 02:50:37;;;;;;;3.08;1.50;;;2.90;99.90;;;;;;5033310;28;20033;-63
2023/12/18 02:53:03;;;;;;;2.58;0.98;;;2.90;99.90;;;;;;5012144;28;20108;-63
2023/12/18 02:55:28;;;;;;;2.80;1.23;;;2.90;99.90;;;;;;5014044;28;20034;-63
2023/12/18 02:57:54;;;;;;;2.38;1.20;;;2.90;99.90;;;;;;5013822;28;20033;-63
2023/12/18 03:00:19;;;;;;;2.88;1.20;;;2.90;99.90;;;;;;5013790;28;20030;-63
2023/12/18 03:02:45;;;;;;;2.63;1.23;;;2.90;99.90;;;;;;5012563;28;20026;-63
2023/12/18 03:05:11;;;;;;;2.35;1.45;;;2.90;99.90;;;;;;5012760;28;20049;-63
2023/12/18 03:07:36;;;;;;;1.50;1.08;;;2.80;99.90;;;;;;5013897;28;20352;-63
2023/12/18 03:10:03;;;;;;;1.38;1.20;;;2.80;99.90;;;;;;5013709;28;20029;-63
2023/12/18 03:12:28;;;;;;;1.50;1.05;;;2.80;99.90;;;;;;5013619;28;20103;-63
2023/12/18 03:14:54;;;;;;;2.28;1.10;;;2.70;99.90;;;;;;5013613;28;20526;-63
2023/12/18 03:17:20;;;;;;;3.35;1.02;;;2.70;99.90;;;;;;5013613;28;20022;-63
2023/12/18 03:19:45;;;;;;;2.42;0.80;;;2.70;99.90;;;;;;5013583;28;20361;-63
2023/12/18 03:22:13;;;;;;;3.92;1.45;;;2.80;99.90;;;;;;5016962;28;20113;-63
2023/12/18 03:24:39;;;;;;;4.93;1.75;;;2.70;99.90;;;;;;5017288;28;20026;-63
2023/12/18 03:27:05;;;;;;;2.33;1.00;;;2.70;99.90;;;;;;5017236;28;20030;-63
2023/12/18 03:29:31;;;;;;;1.45;1.10;;;2.70;99.90;;;;;;5015917;28;20383;-63
2023/12/18 03:31:56;;;;;;;2.22;0.98;;;2.80;99.90;;;;;;5017039;28;20037;-63
2023/12/18 03:34:22;;;;;;;1.17;0.82;;;2.70;99.90;;;;;;5015836;28;20025;-63
2023/12/18 03:36:47;;;;;;;2.28;1.17;;;2.70;99.90;;;;;;5016886;28;20030;-63
2023/12/18 03:39:13;;;;;;;1.45;0.88;;;2.90;99.90;;;;;;5015959;28;20096;-63
2023/12/18 03:41:39;;;;;;;2.05;0.98;;;2.80;99.90;;;;;;5015681;28;20144;-63
2023/12/18 03:44:04;;;;;;;3.40;1.92;;;2.80;99.90;;;;;;5016698;28;20053;-63
2023/12/18 03:46:30;;;;;;;1.02;0.73;;;2.70;99.90;;;;;;5015661;28;20030;-63
2023/12/18 03:48:55;;;;;;;2.70;0.77;;;2.70;99.90;;;;;;5016828;28;20494;-63
2023/12/18 03:51:21;;;;;;;7.65;1.00;;;2.70;99.90;;;;;;5022331;28;20115;-63
2023/12/18 03:53:47;;;;;;;1.55;1.20;;;2.60;99.90;;;;;;5018759;28;20021;-63
2023/12/18 03:56:13;;;;;;;1.45;0.98;;;2.60;99.90;;;;;;5036482;28;20037;-63
2023/12/18 03:58:38;;;;;;;1.30;0.90;;;2.70;99.90;;;;;;5036664;28;20448;-63
2023/12/18 04:01:04;;;;;;;2.45;0.98;;;2.50;99.90;;;;;;5018791;28;20033;-63
2023/12/18 04:03:29;;;;;;;1.77;1.00;;;2.40;99.90;;;;;;5036710;28;20037;-63
2023/12/18 04:05:55;;;;;;;2.88;1.40;;;2.30;99.90;;;;;;5018528;28;20029;-63
2023/12/18 04:08:21;;;;;;;2.38;1.15;;;2.40;99.90;;;;;;5019121;28;20033;-63
2023/12/18 04:10:46;;;;;;;2.00;0.90;;;2.30;99.90;;;;;;5035848;28;20065;-63
2023/12/18 04:13:12;;;;;;;2.15;1.10;;;2.20;99.90;;;;;;5018433;28;20032;-63
2023/12/18 04:15:38;;;;;;;5.13;1.08;;;2.10;99.90;;;;;;5018441;28;20024;-63
2023/12/18 04:18:05;;;;;;;2.40;1.45;;;2.00;99.90;;;;;;5036098;28;20017;-63
2023/12/18 04:20:30;;;;;;;1.95;1.40;;;1.90;99.90;;;;;;5036014;28;20079;-63
2023/12/18 04:22:56;;;;;;;2.17;1.38;;;1.90;99.90;;;;;;5018444;28;20034;-63
2023/12/18 04:25:22;;;;;;;2.13;1.30;;;1.80;99.90;;;;;;5036158;28;20083;-63
2023/12/18 04:27:48;;;;;;;3.50;1.40;;;1.70;99.90;;;;;;5037184;28;20517;-63
2023/12/18 04:30:13;;;;;;;6.07;1.38;;;1.70;99.90;;;;;;5038237;28;20025;-66
2023/12/18 04:32:39;;;;;;;1.98;1.58;;;1.70;99.90;;;;;;5018809;28;20029;-65
2023/12/18 04:35:05;;;;;;;2.33;1.48;;;1.60;99.90;;;;;;5036861;28;20040;-63
2023/12/18 04:37:30;;;;;;;3.80;1.45;;;1.60;99.90;;;;;;5035738;28;20033;-63
2023/12/18 04:39:56;;;;;;;1.30;0.93;;;1.60;99.90;;;;;;5035714;28;20026;-63
2023/12/18 04:42:22;;;;;;;3.65;1.10;;;1.50;99.90;;;;;;5035662;28;20592;-63
2023/12/18 04:44:49;;;;;;;1.08;0.55;;;1.50;99.90;;;;;;5035666;28;20029;-63
2023/12/18 04:47:14;;;;;;;4.97;0.73;;;1.70;99.90;;;;;;5018056;28;20112;-63
2023/12/18 04:49:40;;;;;;;1.85;0.80;;;2.20;99.90;;;;;;5035483;28;20415;-63
2023/12/18 04:52:06;;;;;;;0.80;0.45;;;2.50;99.90;;;;;;5013919;28;20484;-63
2023/12/18 04:54:31;;;;;;;1.60;0.45;;;2.90;99.90;;;;;;5015350;28;20030;-63
2023/12/18 04:56:58;;;;;;;2.72;0.70;;;3.40;99.90;;;;;;5015747;28;20026;-63
2023/12/18 04:59:23;;;;;;;1.10;0.82;;;4.10;99.90;;;;;;5015237;28;20054;-63
2023/12/18 05:01:49;;;;;;;1.80;0.40;;;4.60;99.90;;;;;;5015539;28;20459;-63
2023/12/18 05:04:14;;;;;;;0.73;0.30;;;5.20;99.90;;;;;;5015719;28;20030;-63
2023/12/18 05:06:41;;;;;;;0.57;0.15;;;5.90;99.90;;;;;;5014097;28;20388;-63
2023/12/18 05:09:06;;;;;;;0.65;0.40;;;6.30;99.90;;;;;;5014110;28;20026;-63
2023/12/18 05:11:32;;;;;;;0.65;0.40;;;6.40;99.90;;;;;;5015489;28;20361;-63
2023/12/18 05:13:58;;;;;;;4.45;0.28;;;6.80;99.90;;;;;;5015449;28;20030;-63
2023/12/18 05:16:24;;;;;;;0.90;0.35;;;7.00;99.90;;;;;;5015175;28;20095;-63
2023/12/18 05:18:49;;;;;;;0.65;0.50;;;7.10;99.90;;;;;;5015407;28;20030;-63
2023/12/18 05:21:15;;;;;;;0.43;0.40;;;7.20;99.90;;;;;;5013849;28;20033;-63
2023/12/18 05:23:40;;;;;;;0.93;0.50;;;7.20;99.90;;;;;;5015125;28;20029;-63
2023/12/18 05:26:07;;;;;;;0.52;0.20;;;7.30;99.90;;;;;;5015280;28;20111;-63
2023/12/18 05:28:32;;;;;;;0.40;0.30;;;7.40;99.90;;;;;;5015276;28;20080;-63
2023/12/18 05:30:58;;;;;;;1.77;0.43;;;7.40;99.90;;;;;;5015053;28;20065;-64
2023/12/18 05:33:25;;;;;;;0.40;0.40;;;7.40;99.90;;;;;;5014031;28;20040;-64
2023/12/18 05:35:50;;;;;;;0.50;0.40;;;7.40;99.90;;;;;;5014900;28;20414;-63
2023/12/18 05:38:16;;;;;;;0.68;0.40;;;7.50;99.90;;;;;;5014786;28;20092;-63
2023/12/18 05:40:42;;;;;;;0.35;0.32;;;7.50;99.90;;;;;;5014857;28;20030;-64
2023/12/18 05:43:07;;;;;;;0.68;0.52;;;7.50;99.90;;;;;;5013971;28;20463;-64
2023/12/18 05:45:33;;;;;;;2.35;0.55;;;7.60;99.90;;;;;;5013763;28;20026;-64
2023/12/18 05:48:00;;;;;;;2.47;0.30;;;7.50;99.90;;;;;;5014386;28;20483;-64
2023/12/18 05:50:26;;;;;;;0.95;0.30;;;7.50;99.90;;;;;;5013358;28;20459;-64
2023/12/18 05:52:52;;;;;;;0.75;0.52;;;7.50;99.90;;;;;;5013204;28;20049;-64
2023/12/18 05:55:18;;;;;;;0.50;0.50;;;7.40;99.90;;;;;;5013409;28;20079;-64
2023/12/18 05:57:43;;;;;;;0.88;0.50;;;7.30;99.90;;;;;;5013233;28;20075;-64
2023/12/18 06:00:10;;;;;;;0.47;0.47;;;7.20;99.90;;;;;;5014681;28;20065;-64
2023/12/18 06:02:36;;;;;;;0.50;0.25;;;7.20;99.90;;;;;;5014213;28;20108;-64
2023/12/18 06:05:02;;;;;;;0.80;0.68;;;7.20;99.90;;;;;;5012803;28;20073;-64
2023/12/18 06:07:28;;;;;;;0.88;0.30;;;7.20;99.90;;;;;;5014058;28;20479;-64
2023/12/18 06:09:54;;;;;;;1.85;0.47;;;7.20;99.90;;;;;;5013031;28;20030;-63
2023/12/18 06:12:20;;;;;;;0.30;0.30;;;7.30;99.90;;;;;;5012921;28;20044;-64
2023/12/18 06:14:45;;;;;;;1.30;0.60;;;7.30;99.90;;;;;;5014267;28;20048;-64
2023/12/18 06:17:11;;;;;;;0.68;0.52;;;7.40;99.90;;;;;;5012915;28;20029;-64
2023/12/18 06:19:38;;;;;;;1.23;0.50;;;7.40;99.90;;;;;;5014485;28;20038;-64
2023/12/18 06:22:04;;;;;;;0.90;0.43;;;7.50;99.90;;;;;;5012968;28;20433;-64
2023/12/18 06:24:29;;;;;;;0.98;0.50;;;7.40;99.90;;;;;;5013686;28;20030;-64
2023/12/18 06:26:56;;;;;;;1.00;0.57;;;7.40;99.90;;;;;;5014465;28;20502;-65
2023/12/18 06:29:25;;;;;;;2.47;0.73;;;7.30;99.90;;;;;;5014037;28;20113;-64
2023/12/18 06:31:51;;;;;;;0.47;0.40;;;7.20;99.90;;;;;;5014415;28;20095;-63
2023/12/18 06:34:16;;;;;;;0.65;0.35;;;7.10;99.90;;;;;;5012733;28;20034;-64
2023/12/18 06:36:43;;;;;;;1.10;0.35;;;7.20;99.90;;;;;;5014009;28;20034;-64
2023/12/18 06:39:10;;;;;;;1.17;0.45;;;7.30;99.90;;;;;;5013001;28;20113;-63
2023/12/18 06:41:35;;;;;;;1.63;0.50;;;7.50;99.90;;;;;;5013416;28;20026;-63
2023/12/18 06:44:02;;;;;;;1.95;0.63;;;7.50;99.90;;;;;;5014204;28;20033;-63
2023/12/18 06:46:28;;;;;;;0.88;0.40;;;7.60;99.90;;;;;;5014276;28;20451;-64
2023/12/18 06:48:55;;;;;;;3.13;0.30;;;7.70;99.90;;;;;;5012639;28;20076;-63
2023/12/18 06:51:20;;;;;;;0.68;0.40;;;7.70;99.90;;;;;;5019751;28;20064;-64
2023/12/18 06:53:46;;;;;;;0.60;0.52;;;7.70;99.90;;;;;;5016662;28;20026;-64
2023/12/18 06:56:12;;;;;;;1.48;0.43;;;7.60;99.90;;;;;;5035494;28;20029;-63
2023/12/18 06:58:39;;;;;;;2.17;0.52;;;7.60;99.90;;;;;;5019950;28;20112;-63
2023/12/18 07:01:05;;;;;;;1.40;0.40;;;7.60;99.90;;;;;;5037585;28;20025;-64
2023/12/18 07:03:30;;;;;;;1.40;0.63;;;7.60;99.90;;;;;;5019858;28;20025;-63
2023/12/18 07:05:56;;;;;;;1.02;0.77;;;7.60;99.90;;;;;;5019665;28;20025;-63
2023/12/18 07:08:22;;;;;;;0.43;0.30;;;7.70;99.90;;;;;;5037362;28;20037;-64
2023/12/18 07:10:48;;;;;;;0.93;0.50;;;7.70;99.90;;;;;;5019206;28;20467;-64
2023/12/18 07:13:15;;;;;;;1.90;0.70;;;7.80;99.90;;;;;;5037317;28;20030;-63
2023/12/18 07:15:41;;;;;;;1.92;0.50;;;7.70;99.90;;;;;;5019518;28;20407;-63
2023/12/18 07:18:09;;;;;;;0.50;0.40;;;7.70;99.90;;;;;;5019501;28;20030;-64
2023/12/18 07:20:35;;;;;;;1.73;0.70;;;7.70;99.90;;;;;;5037179;28;20026;-63
2023/12/18 07:23:01;;;;;;;2.40;1.00;;;7.70;99.90;;;;;;5037181;28;20036;-63
2023/12/18 07:25:26;;;;;;;4.70;0.70;;;7.70;99.90;;;;;;5036783;28;20070;-63
2023/12/18 07:27:52;;;;;;;1.50;0.70;;;7.60;99.90;;;;;;5037025;28;20387;-63
2023/12/18 07:30:20;;;;;;;2.13;0.80;;;7.60;99.90;;;;;;5036969;28;20025;-63
2023/12/18 07:32:45;;;;;;;1.17;0.57;;;7.70;99.90;;;;;;5036916;28;20033;-63
2023/12/18 07:35:11;;;;;;;2.42;0.85;;;7.70;99.90;;;;;;5037225;28;20029;-63
2023/12/18 07:37:37;;;;;;;1.95;0.93;;;7.60;99.90;;;;;;5036919;28;20108;-63
2023/12/18 07:40:03;;;;;;;2.28;1.08;;;7.60;99.90;;;;;;5036895;28;20447;-64
2023/12/18 07:42:29;;;;;;;1.95;0.80;;;7.70;99.90;;;;;;5019803;28;20030;-63
2023/12/18 07:44:55;;;;;;;2.42;0.95;;;7.70;99.90;;;;;;5036766;28;20036;-63
2023/12/18 07:47:20;;;;;;;2.65;1.00;;;7.80;99.90;;;;;;5019506;28;20060;-63
2023/12/18 07:49:48;;;;;;;4.30;1.08;;;7.90;99.90;;;;;;5037006;28;20029;-63
2023/12/18 07:52:14;;;;;;;0.82;0.70;;;7.80;99.90;;;;;;5018820;28;20455;-63
2023/12/18 07:54:40;;;;;;;1.63;0.60;;;7.70;99.90;;;;;;5036605;28;20079;-63
2023/12/18 07:57:24;;;;;;;1.30;0.55;;;7.70;99.90;;;;;;5018727;28;20028;-63
2023/12/18 07:59:49;;;;;;;2.08;0.73;;;7.80;99.90;;;;;;5018890;28;20029;-63
2023/12/18 08:02:15;;;;;;;5.60;0.70;;;8.10;99.90;;;;;;5018847;28;20037;-64
2023/12/18 08:04:41;;;;;;;1.75;0.60;;;8.30;99.90;;;;;;5018213;28;20095;-64
2023/12/18 08:07:06;;;;;;;2.90;0.40;;;8.40;99.90;;;;;;5017297;28;20037;-64
2023/12/18 08:09:32;;;;;;;1.42;0.60;;;8.50;99.90;;;;;;5018673;28;20021;-64
2023/12/18 08:11:58;;;;;;;0.80;0.73;;;8.60;99.90;;;;;;5018502;28;20029;-65
2023/12/18 08:14:24;;;;;;;1.58;0.57;;;8.80;99.80;;;;;;5036372;28;20033;-66
2023/12/18 08:16:50;;;;;;;1.23;0.55;;;8.90;99.40;;;;;;5018437;28;20124;-64
2023/12/18 08:19:16;;;;;;;2.90;0.45;;;9.10;99.50;;;;;;5018357;28;20037;-63
2023/12/18 08:21:41;;;;;;;1.17;0.50;;;9.30;98.80;;;;;;5018268;28;20083;-66
2023/12/18 08:24:07;;;;;;;0.47;0.10;;;9.60;98.40;;;;;;5018482;28;20073;-64
2023/12/18 08:26:33;;;;;;;1.77;0.60;;;9.90;98.00;;;;;;5036049;28;20029;-64
2023/12/18 08:28:59;;;;;;;6.28;0.60;;;10.40;97.20;;;;;;5035908;28;20033;-63
2023/12/18 08:31:24;;;;;;;2.53;0.22;;;11.20;95.80;;;;;;5018018;28;20037;-64
2023/12/18 08:33:50;;;;;;;1.13;0.50;;;12.10;94.10;;;;;;5036392;28;20104;-64
2023/12/18 08:36:16;;;;;;;0.70;0.35;;;12.80;91.60;;;;;;5036089;28;20033;-64
2023/12/18 08:38:41;;;;;;;1.77;1.02;;;13.40;90.20;;;;;;5035388;28;20461;-64
2023/12/18 08:41:07;;;;;;;2.45;0.70;;;14.00;85.90;;;;;;5017925;28;20061;-64
2023/12/18 08:43:33;;;;;;;0.57;0.57;;;14.70;82.30;;;;;;5035628;28;20033;-64
2023/12/18 08:45:58;;;;;;;1.42;0.68;;;14.80;80.00;;;;;;5017763;28;20451;-64
2023/12/18 08:48:24;;;;;;;1.00;0.82;;;15.40;77.40;;;;;;5035444;28;20036;-64
2023/12/18 08:50:49;;;;;;;0.98;0.50;;;16.00;74.10;;;;;;5035253;28;20036;-64
2023/12/18 08:53:15;;;;;;;5.50;0.80;;;16.10;72.20;;;;;;5035546;28;20021;-64
2023/12/18 08:55:41;;;;;;;0.40;0.40;;;16.40;70.10;;;;;;5035578;28;20033;-64
2023/12/18 08:58:09;;;;;;;1.95;0.50;;;16.60;67.60;;;;;;5018275;28;20458;-69
2023/12/18 09:00:36;;;;;;;1.20;0.50;;;16.70;66.40;;;;;;5017757;28;20029;-64
2023/12/18 09:03:02;;;;;;;0.30;0.30;;;16.70;66.30;;;;;;5035278;28;20112;-64
2023/12/18 09:05:28;;;;;;;3.00;0.45;;;17.00;64.60;;;;;;5017363;28;20032;-64
2023/12/18 09:07:54;;;;;;;1.27;0.50;;;16.90;64.40;;;;;;5035135;28;20034;-64
2023/12/18 09:10:22;;;;;;;0.90;0.30;;;17.50;62.50;;;;;;5034986;28;20099;-65
2023/12/18 09:12:48;;;;;;;0.40;0.30;;;17.50;61.00;;;;;;5035031;28;20061;-64
2023/12/18 09:15:14;;;;;;;0.47;0.40;;;17.90;60.60;;;;;;5035130;28;20379;-64
2023/12/18 09:17:40;;;;;;;1.23;0.47;;;18.00;59.50;;;;;;5035074;28;20029;-65
2023/12/18 09:20:06;;;;;;;0.65;0.50;;;18.20;59.20;;;;;;5034779;28;20494;-64
2023/12/18 09:22:32;;;;;;;0.38;0.38;;;18.70;58.50;;;;;;5017467;28;20033;-64
2023/12/18 09:24:57;;;;;;;0.90;0.30;;;18.80;57.00;;;;;;5034761;28;20105;-64
2023/12/18 09:27:23;;;;;;;0.35;0.30;;;18.50;56.70;;;;;;5034323;28;20029;-64
2023/12/18 09:29:48;;;;;;;0.75;0.63;;;18.50;56.80;;;;;;5016967;28;20475;-64
2023/12/18 09:32:15;;;;;;;0.15;0.15;;;18.60;56.00;;;;;;5034539;28;20033;-64
2023/12/18 09:34:40;;;;;;;1.17;0.22;;;18.60;56.30;;;;;;5035084;28;20379;-64
2023/12/18 09:37:07;;;;;;;0.35;0.35;;;18.80;55.20;;;;;;5034913;28;20101;-64
2023/12/18 09:39:33;;;;;;;0.35;0.35;;;18.50;55.20;;;;;;5034495;28;20079;-64
2023/12/18 09:42:02;;;;;;;0.85;0.40;;;18.30;55.20;;;;;;5016678;28;20041;-64
2023/12/18 09:44:32;;;;;;;3.35;0.30;;;18.50;55.40;;;;;;5034246;28;20032;-64
2023/12/18 09:46:59;;;;;;;0.40;0.30;;;18.80;54.60;;;;;;5016366;28;20026;-64
2023/12/18 09:49:25;;;;;;;0.47;0.20;;;18.90;53.70;;;;;;5033970;28;20511;-64
2023/12/18 09:51:54;;;;;;;2.85;0.30;;;18.90;54.00;;;;;;5016241;28;20049;-64
2023/12/18 09:54:20;;;;;;;;;;;18.50;54.40;;;;;;5034639;28;20478;-64
2023/12/18 09:56:48;;;;;;;0.65;0.47;;;18.40;54.80;;;;;;5016498;28;19913;-64
2023/12/18 09:59:16;;;;;;;0.47;0.47;;;18.20;54.50;;;;;;5034137;28;20079;-64
2023/12/18 10:01:42;;;;;;;0.10;0.10;;;17.80;54.70;;;;;;5034062;28;20057;-64
2023/12/18 10:04:08;;;;;;;0.35;0.30;;;17.50;55.30;;;;;;5034435;28;20021;-64
2023/12/18 10:06:34;;;;;;;1.50;0.30;;;16.90;55.50;;;;;;5034040;28;20025;-64
2023/12/18 10:09:03;;;;;;;0.82;0.30;;;16.80;55.70;;;;;;5016469;28;20036;-64
2023/12/18 10:11:29;;;;;;;0.40;0.28;;;16.60;56.50;;;;;;5033851;28;20036;-64
2023/12/18 10:13:55;;;;;;;0.90;0.20;;;16.30;56.80;;;;;;5016156;28;20037;-64
2023/12/18 10:16:22;;;;;;;1.25;0.38;;;16.30;57.20;;;;;;5015799;28;20030;-64
2023/12/18 10:18:47;;;;;;;0.22;0.20;;;16.20;58.00;;;;;;5016181;28;20029;-64
2023/12/18 10:21:20;;;;;;;2.70;1.00;;;16.20;58.20;;;;;;5016168;28;20040;-64
2023/12/18 10:23:45;;;;;;;3.00;0.40;;;16.50;57.00;;;;;;5015997;28;20384;-64
2023/12/18 10:26:12;;;;;;;0.32;0.30;;;17.00;56.90;;;;;;5033665;28;20032;-64
2023/12/18 10:28:38;;;;;;;0.15;0.10;;;17.30;55.70;;;;;;5033661;28;20026;-64
2023/12/18 10:31:08;;;;;;;0.50;0.10;;;17.20;56.00;;;;;;5015253;28;20033;-64
2023/12/18 10:33:34;;;;;;;0.43;0.13;;;17.00;55.70;;;;;;5034027;28;20455;-64
2023/12/18 10:36:00;;;;;;;0.28;0.20;;;16.80;56.20;;;;;;5033203;28;20100;-65
2023/12/18 10:38:29;;;;;;;1.60;0.20;;;16.90;56.80;;;;;;5033657;28;20101;-64
2023/12/18 10:41:00;;;;;;;0.32;0.20;;;17.10;55.90;;;;;;5033334;28;20025;-64
2023/12/18 10:43:30;;;;;;;0.80;0.35;;;17.20;55.70;;;;;;5033594;28;20025;-64
2023/12/18 10:45:57;;;;;;;5.53;0.50;;;17.40;55.00;;;;;;5015831;28;20390;-64
2023/12/18 10:48:25;;;;;;;0.50;0.20;;;17.40;54.70;;;;;;5033484;28;20025;-64
2023/12/18 10:50:55;;;;;;;0.45;0.22;;;17.60;53.70;;;;;;5032528;28;20398;-70
2023/12/18 10:53:22;;;;;;;1.95;0.40;;;17.70;53.70;;;;;;5033591;28;20040;-64
2023/12/18 10:55:49;;;;;;;1.58;0.50;;;18.40;53.70;;;;;;5015966;28;20029;-64
2023/12/18 10:58:17;;;;;;;0.65;0.60;;;18.90;52.20;;;;;;5033450;28;20049;-64
2023/12/18 11:00:48;;;;;;;7.68;0.60;;;19.40;50.80;;;;;;5033659;28;20033;-64
2023/12/18 11:03:16;;;;;;;1.38;0.40;;;20.00;50.20;;;;;;5015655;28;20467;-64
2023/12/18 11:05:42;;;;;;;1.48;0.40;;;20.40;48.90;;;;;;5015908;28;20045;-64
2023/12/18 11:08:10;;;;;;;3.03;0.45;;;20.50;48.00;;;;;;5033437;28;20498;-64
2023/12/18 11:10:36;;;;;;;2.28;0.38;;;20.80;48.10;;;;;;5033482;28;20029;-64
2023/12/18 11:13:14;;;;;;;0.60;0.50;;;21.10;47.60;;;;;;5015453;28;20477;-64
2023/12/18 11:16:18;;;;;;;0.38;0.38;;;21.70;46.00;;;;;;5016056;28;20080;-64
2023/12/18 11:18:46;;;;;;;3.28;0.50;;;21.60;45.30;;;;;;5030225;28;20041;-64
2023/12/18 11:21:12;;;;;;;1.63;0.52;;;21.60;45.60;;;;;;5015674;28;20033;-64
2023/12/18 11:23:39;;;;;;;0.80;0.43;;;21.60;44.70;;;;;;5015444;28;20423;-64
2023/12/18 11:26:09;;;;;;;0.40;0.30;;;21.70;44.50;;;;;;5033116;28;20120;-64
2023/12/18 11:28:35;;;;;;;1.13;0.65;;;21.40;44.10;;;;;;5015360;28;20489;-64
2023/12/18 11:31:02;;;;;;;0.70;0.28;;;21.90;44.50;;;;;;5015353;28;20029;-64
2023/12/18 11:33:29;;;;;;;1.60;0.17;;;21.50;44.10;;;;;;5033122;28;20060;-64
2023/12/18 11:35:56;;;;;;;1.52;0.30;;;21.10;44.40;;;;;;5033441;28;20029;-64
2023/12/18 11:38:24;;;;;;;2.92;0.40;;;21.10;44.10;;;;;;5015433;28;20037;-64
2023/12/18 11:40:52;;;;;;;4.28;0.52;;;21.20;44.20;;;;;;5032472;28;20478;-65
2023/12/18 11:43:38;;;;;;;0.22;0.20;;;21.50;44.00;;;;;;5036144;28;20029;-65
2023/12/18 11:46:09;;;;;;;0.45;0.20;;;21.70;43.60;;;;;;5018122;28;20356;-65
2023/12/18 11:48:35;;;;;;;0.75;0.28;;;21.70;42.80;;;;;;5018740;28;20029;-65
2023/12/18 11:51:04;;;;;;;0.47;0.28;;;21.60;42.10;;;;;;5036317;28;20041;-65
2023/12/18 11:53:35;;;;;;;0.80;0.20;;;21.40;42.80;;;;;;5036730;28;20026;-65
2023/12/18 11:56:11;;;;;;;0.30;0.30;;;21.40;42.00;;;;;;5018712;28;20466;-65
2023/12/18 11:58:40;;;;;;;2.88;0.30;;;20.80;42.20;;;;;;5036434;28;20063;-65
2023/12/18 12:01:07;;;;;;;0.47;0.20;;;20.80;43.00;;;;;;5036295;28;20025;-65
2023/12/18 12:03:33;;;;;;;0.80;0.30;;;20.60;42.90;;;;;;5036297;28;20033;-65
2023/12/18 12:06:01;;;;;;;1.25;0.22;;;20.70;43.40;;;;;;5036226;28;20018;-65
2023/12/18 12:08:27;;;;;;;0.25;0.22;;;21.40;42.60;;;;;;5018365;28;20467;-65
2023/12/18 12:10:55;;;;;;;0.52;0.30;;;21.50;41.60;;;;;;5036167;28;20032;-65
2023/12/18 12:13:23;;;;;;;0.20;0.10;;;21.40;42.20;;;;;;5018364;28;20478;-65
2023/12/18 12:15:54;;;;;;;5.60;0.40;;;21.90;41.30;;;;;;5036284;28;20124;-65
2023/12/18 12:18:21;;;;;;;5.57;0.50;;;21.50;41.00;;;;;;5035982;28;20486;-65
2023/12/18 12:20:47;;;;;;;3.75;0.30;;;21.70;41.10;;;;;;5036189;28;20057;-65
2023/12/18 12:23:13;;;;;;;1.23;0.32;;;21.40;40.80;;;;;;5018246;28;20057;-65
2023/12/18 12:25:39;;;;;;;1.42;0.20;;;20.60;41.30;;;;;;5018951;28;20018;-65
2023/12/18 12:28:06;;;;;;;0.90;0.40;;;20.60;42.30;;;;;;5035540;28;20065;-65
2023/12/18 12:30:32;;;;;;;0.20;0.20;;;19.80;42.10;;;;;;5035824;28;20486;-65
2023/12/18 12:32:58;;;;;;;0.40;0.13;;;19.60;43.00;;;;;;5035588;28;20025;-65
2023/12/18 12:35:25;;;;;;;0.47;0.30;;;19.60;42.70;;;;;;5017966;28;20482;-65
2023/12/18 12:37:51;;;;;;;0.30;0.30;;;19.30;42.90;;;;;;5035234;28;20386;-65
2023/12/18 12:40:16;;;;;;;0.75;0.20;;;19.20;42.80;;;;;;5035535;28;20037;-65
2023/12/18 12:42:43;;;;;;;1.95;0.30;;;18.60;43.80;;;;;;5035274;28;20061;-65
2023/12/18 12:45:11;;;;;;;0.95;0.17;;;18.20;44.30;;;;;;5017686;28;20359;-65
2023/12/18 12:47:41;;;;;;;0.47;0.32;;;17.90;45.20;;;;;;5035431;28;20463;-65